Roanoke Regional Woodrum Field Roanoke US
ICAO: KROA
IATA: ROA
Category: Large
Scheduled Services: Yes

Elevation: 1175 ft
TransAlt. 18000 ft.

Airport Communications:
APP/DEP:118.15
ATIS:134.95
CLNC DEL:119.7
GND:121.9
LEESBURG RDO:122.2
TWR:118.3
UNICOM:122.95

KROA Zoom In..

Runways:

(A) RW 06 length 6800 ft width 150 ft
---- / hdg 57

(B) RW 16 length 5810 ft width 150 ft
---- / hdg 156

(C) RW 24 length 6800 ft width 150 ft
---- / hdg 237

(D) RW 34 length 5810 ft width 150 ft
ILS 109.70 / hdg 336

Location; KROA
Day. 08 / Time. 04.54 Zulu
* Altimeter: 29.76
* Temperature: 20° c. 68°f.
* Wind from: 220° Speed 04 kn.
Dewpoint: 12° c.
Visibility: 10 Statute Miles.
Clouds: Clear (automated report).

KROA 080454Z 22004KT 10SM CLR 20/12 A2976 RMK AO2 SLP068 T02000122 402670094


Wind From 220°
Speed 04 kn.

 
 
jpsmedia worldairports.se 2020   terms of use